Terminal Aerodrome Forecast
Issued by NWS

Home | Current Version | Previous Version | Text Only | Print | Product List | Glossary Off
Versions: 1 2 3 4 5 6 7 8 9 10 11 12 13 14

000
FTUS43 KIWX 281700
TAFSBN
TAF
KSBN 281720Z 2818/2918 33005KT P6SM SKC
     FM290200 18005KT P6SM SCT250
     FM291500 18017G24KT P6SM SCT050 BKN120=

USA.gov is the U.S. government's official web portal to all federal, state and local government web resources and services.